Angwin, CA

11:27 PM PDT on September 17, 2014 (GMT -0700)
Petaluma | Change Station
CLOSE
Current Station
Airport
Location: Petaluma,
Elevation: 89 ft
Nearby Weather Stations

Elev 89 ft 38.26 °N, 122.61 °W | Updated 12 minutes ago

Partly Cloudy
Partly Cloudy
66 °F
Feels Like 66 °F
N
0
Wind Variable Wind from North

Today
High -- | Low -- °F
--% Chance of Precip.
Yesterday
High -- | Low -- °F
Precip. -- in
6:53 AM 7:14 PM
Waning Crescent, 29% visible
Pressure 29.80 in
Visibility 9.0 miles
Clouds Overcast 1700 ft
Dew Point 63 °F
Humidity 88%
Rainfall 0.00 in
Snow Depth 0 in , 0 in , 0 in
UV 0 out of 12
Pollen 6.20 out of 12
PM2.5 Good
Flu Activity Not available.
METAR KO69 180615Z AUTO 00000KT 9SM OVC017 19/17 A2980 RMK AO1

More Conditions Fewer Conditions

Pressure 29.80 in
Visibility 9.0 miles
Clouds Overcast 1700 ft
Dew Point 63 °F
Humidity 88%
Rainfall 0.00 in
Snow Depth 0 in , 0 in , 0 in
UV 0 out of 12
Pollen 6.20 out of 12
PM2.5 Good
Flu Activity Not available.
METAR KO69 180615Z AUTO 00000KT 9SM OVC017 19/17 A2980 RMK AO1

More Conditions Fewer Conditions

10-Day Weather Forecast

Almanac

Astronomy

Sep. 17, 2014 Rise Set
Actual Time 6:53 AM PDT 7:14 PM PDT
Civil Twilight 6:26 AM PDT 7:41 PM PDT
Nautical Twilight 5:55 AM PDT 8:12 PM PDT
Astronomical Twilight 5:23 AM PDT 8:43 PM PDT
Moon 1:00 AM PDT (9/17) 3:25 PM PDT (9/17)
Length of Visible Light 13h 14m
Length of Day
12h 21m
Tomorrow will be 2m 29s shorter.
Waning Crescent, 29% of the Moon is Illuminated
Sep 18
Waning Crescent
Sep 24
New
Oct 1
First Quarter
Oct 8
Full
Oct 15
Last Quarter

Yesterday's Extremes

State Highs State Lows

Community

WunderPhotos

Upload Photos

1,754,299 photos uploaded!

Nearby

Air Quality

  Air Quality AQ Index Pollutant
Yesterday Good
PM2.5
Yesterday Good
OZONE
Current Good
PM2.5
Wednesday Good
PM2.5
Thursday Good
OZONE
Friday Good
PM2.5
Saturday Moderate
PM2.5
Sunday Moderate
PM2.5
Monday Moderate
PM2.5

Snow Depth

Station Depth Elevation
Hagan's Meadow 0 in 8000 ft
Tahoe City Cross 0 in 6750 ft
Summit Meadow 0 in 9122 ft
Spratt Creek 0 in 6200 ft
Leavitt Meadows 1 in 7200 ft

Earthquake Activity

City Distance Mag. Time & Date
Cobb, California 21 miles 2.7 1:23 PM PDT
2014-09-16
Minimum magnitude displayed is 2.5.

Coastal Water Temperatures

Place Temperature
No Stations Reporting

Nearby Weather Stations